createdAt,value
2023-04-09T00:01:06.682Z,10.33
2023-04-09T00:03:33.916Z,10.54
2023-04-09T00:06:00.988Z,10.56
2023-04-09T00:08:27.948Z,10.44
2023-04-09T00:10:55.281Z,10.52
2023-04-09T00:13:31.905Z,10.40
2023-04-09T00:16:05.288Z,10.42
2023-04-09T00:18:32.004Z,10.33
2023-04-09T00:20:58.692Z,10.40
2023-04-09T00:23:25.426Z,10.37
2023-04-09T00:25:52.198Z,10.22
2023-04-09T00:28:18.992Z,10.26
2023-04-09T00:30:45.923Z,10.18
2023-04-09T00:33:12.766Z,10.23
2023-04-09T00:35:39.600Z,10.18
2023-04-09T00:38:06.189Z,10.09
2023-04-09T00:40:32.997Z,10.09
2023-04-09T00:42:59.705Z,10.11
2023-04-09T00:45:26.270Z,10.05
2023-04-09T00:47:53.483Z,10.04
2023-04-09T00:50:22.011Z,9.93
2023-04-09T00:52:48.529Z,9.95
2023-04-09T00:55:15.751Z,9.95
2023-04-09T00:57:42.286Z,9.93
2023-04-09T01:00:09.706Z,9.80
2023-04-09T01:02:36.623Z,9.79
2023-04-09T01:05:04.536Z,9.78
2023-04-09T01:07:59.789Z,9.84
2023-04-09T01:10:32.401Z,9.73
2023-04-09T01:13:28.395Z,9.62
2023-04-09T01:15:58.577Z,9.73
2023-04-09T01:18:31.763Z,9.66
2023-04-09T01:21:02.807Z,9.69
2023-04-09T01:23:48.196Z,9.59
2023-04-09T01:26:52.413Z,9.63
2023-04-09T01:29:21.333Z,9.59
2023-04-09T01:31:49.905Z,9.48
2023-04-09T01:34:17.919Z,9.43
2023-04-09T01:36:52.115Z,9.27
2023-04-09T01:39:19.627Z,9.14
2023-04-09T01:41:47.021Z,9.17
2023-04-09T01:44:14.741Z,9.13
2023-04-09T01:46:41.827Z,8.99
2023-04-09T01:49:10.553Z,8.99
2023-04-09T01:51:38.222Z,8.95
2023-04-09T01:54:04.981Z,8.85
2023-04-09T01:56:47.045Z,8.78
2023-04-09T01:59:14.235Z,8.71
2023-04-09T02:01:53.155Z,8.72
2023-04-09T02:04:35.715Z,8.67
2023-04-09T02:07:06.790Z,8.62
2023-04-09T02:09:37.341Z,8.42
2023-04-09T02:12:06.775Z,8.33
2023-04-09T02:14:35.000Z,8.53
2023-04-09T02:17:02.070Z,8.55
2023-04-09T02:19:47.104Z,8.54
2023-04-09T02:22:15.304Z,8.52
2023-04-09T02:24:41.928Z,8.47
2023-04-09T02:27:09.027Z,8.35
2023-04-09T02:29:35.638Z,8.41
2023-04-09T02:32:02.219Z,8.36
2023-04-09T02:34:28.873Z,8.31
2023-04-09T02:36:55.377Z,8.41
2023-04-09T02:39:22.066Z,8.35
2023-04-09T02:41:48.777Z,8.23
2023-04-09T02:44:15.872Z,8.28
2023-04-09T02:46:42.568Z,8.27
2023-04-09T02:49:09.300Z,8.32
2023-04-09T02:51:36.287Z,8.22
2023-04-09T02:54:03.604Z,8.18
2023-04-09T02:56:30.608Z,8.22
2023-04-09T02:58:57.199Z,8.19
2023-04-09T03:01:23.790Z,8.21
2023-04-09T03:03:50.678Z,8.13
2023-04-09T03:06:18.625Z,8.10
2023-04-09T03:08:45.460Z,8.11
2023-04-09T03:11:13.635Z,8.02
2023-04-09T03:13:40.125Z,7.91
2023-04-09T03:16:07.242Z,7.94
2023-04-09T03:18:33.851Z,7.96
2023-04-09T03:21:00.342Z,7.81
2023-04-09T03:23:26.960Z,7.83
2023-04-09T03:26:04.197Z,7.89
2023-04-09T03:28:31.375Z,7.88
2023-04-09T03:30:58.285Z,7.85
2023-04-09T03:33:25.750Z,7.78
2023-04-09T03:35:52.818Z,7.80
2023-04-09T03:38:20.131Z,7.80
2023-04-09T03:40:47.777Z,7.82
2023-04-09T03:43:14.872Z,7.71
2023-04-09T03:45:42.235Z,7.80
2023-04-09T03:48:09.143Z,7.68
2023-04-09T03:50:40.653Z,7.71
2023-04-09T03:53:08.985Z,7.67
2023-04-09T03:55:36.298Z,7.73
2023-04-09T03:58:02.833Z,7.67
2023-04-09T04:00:29.503Z,7.67
2023-04-09T04:02:56.365Z,7.72
2023-04-09T04:05:25.914Z,7.63
2023-04-09T04:07:52.721Z,7.73
2023-04-09T04:10:19.948Z,7.70
2023-04-09T04:12:46.881Z,7.66
2023-04-09T04:15:13.908Z,7.67
2023-04-09T04:17:40.849Z,7.60
2023-04-09T04:20:08.244Z,7.57
2023-04-09T04:22:36.026Z,7.58
2023-04-09T04:25:05.857Z,7.51
2023-04-09T04:27:32.458Z,7.52
2023-04-09T04:30:00.130Z,7.49
2023-04-09T04:32:27.800Z,7.44
2023-04-09T04:34:54.753Z,7.32
2023-04-09T04:37:23.483Z,7.34
2023-04-09T04:39:50.313Z,7.41
2023-04-09T04:42:19.227Z,7.38
2023-04-09T04:44:47.301Z,7.44
2023-04-09T04:47:15.668Z,7.47
2023-04-09T04:49:42.126Z,7.43
2023-04-09T04:52:08.747Z,7.49
2023-04-09T04:54:38.492Z,7.46
2023-04-09T04:57:05.606Z,7.48
2023-04-09T04:59:32.276Z,7.57
2023-04-09T05:01:58.971Z,7.77
2023-04-09T05:04:28.537Z,7.76
2023-04-09T05:06:55.046Z,7.82
2023-04-09T05:09:22.953Z,7.94
2023-04-09T05:11:50.657Z,7.98
2023-04-09T05:14:17.449Z,7.90
2023-04-09T05:16:44.334Z,8.09
2023-04-09T05:19:11.061Z,8.02
2023-04-09T05:21:37.629Z,8.09
2023-04-09T05:24:06.394Z,8.17
2023-04-09T05:26:33.425Z,8.29
2023-04-09T05:28:59.987Z,8.20
2023-04-09T05:31:26.583Z,8.30
2023-04-09T05:33:54.191Z,8.27
2023-04-09T05:36:20.754Z,8.29
2023-04-09T05:38:47.882Z,8.31
2023-04-09T05:41:15.334Z,8.43
2023-04-09T05:43:42.745Z,8.79
2023-04-09T05:46:09.895Z,8.67
2023-04-09T05:48:36.882Z,8.70
2023-04-09T05:51:03.713Z,8.70
2023-04-09T05:53:32.904Z,8.93
2023-04-09T05:55:59.498Z,8.87
2023-04-09T05:58:28.868Z,8.93
2023-04-09T06:00:55.902Z,8.97
2023-04-09T06:03:22.777Z,8.99
2023-04-09T06:05:49.875Z,9.04
2023-04-09T06:08:16.685Z,9.03
2023-04-09T06:10:44.289Z,9.22
2023-04-09T06:13:11.045Z,9.32
2023-04-09T06:15:39.643Z,9.19
2023-04-09T06:18:06.629Z,9.25
2023-04-09T06:20:34.705Z,9.42
2023-04-09T06:23:01.406Z,9.53
2023-04-09T06:25:28.198Z,9.73
2023-04-09T06:27:54.855Z,9.94
2023-04-09T06:30:22.893Z,9.96
2023-04-09T06:32:54.420Z,10.09
2023-04-09T06:35:22.088Z,10.09
2023-04-09T06:37:51.479Z,10.35
2023-04-09T06:40:19.208Z,10.50
2023-04-09T06:42:48.556Z,10.48
2023-04-09T06:45:19.049Z,10.45
2023-04-09T06:47:48.043Z,10.58
2023-04-09T06:50:14.672Z,10.77
2023-04-09T06:52:41.823Z,10.87
2023-04-09T06:55:09.743Z,10.89
2023-04-09T06:57:36.510Z,11.19
2023-04-09T07:00:04.388Z,11.25
2023-04-09T07:02:31.243Z,11.45
2023-04-09T07:04:58.081Z,11.60
2023-04-09T07:07:25.960Z,11.46
2023-04-09T07:09:53.233Z,11.22
2023-04-09T07:12:37.411Z,11.57
2023-04-09T07:15:06.777Z,11.64
2023-04-09T07:17:35.817Z,11.49
2023-04-09T07:20:03.077Z,11.92
2023-04-09T07:22:30.844Z,11.79
2023-04-09T07:24:57.624Z,12.20
2023-04-09T07:27:30.258Z,12.01
2023-04-09T07:29:58.387Z,12.49
2023-04-09T07:32:32.181Z,12.76
2023-04-09T07:34:59.500Z,12.94
2023-04-09T07:37:27.013Z,13.05
2023-04-09T07:39:53.692Z,13.20
2023-04-09T07:42:23.144Z,12.68
2023-04-09T07:44:50.387Z,12.99
2023-04-09T07:47:16.961Z,13.32
2023-04-09T07:49:43.874Z,12.94
2023-04-09T07:52:11.031Z,13.11
2023-04-09T07:54:37.627Z,13.63
2023-04-09T07:57:10.495Z,13.89
2023-04-09T07:59:37.708Z,13.79
2023-04-09T08:02:05.571Z,14.31
2023-04-09T08:04:33.830Z,13.94
2023-04-09T08:07:00.474Z,14.16
2023-04-09T08:09:27.193Z,14.06
2023-04-09T08:11:53.751Z,14.23
2023-04-09T08:14:21.361Z,13.54
2023-04-09T08:16:49.744Z,14.02
2023-04-09T08:19:17.780Z,14.22
2023-04-09T08:21:44.588Z,14.34
2023-04-09T08:24:12.097Z,14.72
2023-04-09T08:26:39.640Z,13.99
2023-04-09T08:29:07.902Z,14.87
2023-04-09T08:31:35.660Z,14.71
2023-04-09T08:34:02.213Z,14.88
2023-04-09T08:36:31.927Z,15.55
2023-04-09T08:39:00.742Z,15.27
2023-04-09T08:41:31.595Z,15.59
2023-04-09T08:44:00.016Z,15.40
2023-04-09T08:46:28.463Z,14.79
2023-04-09T08:48:58.349Z,15.48
2023-04-09T08:51:25.025Z,16.08
2023-04-09T08:53:58.884Z,15.92
2023-04-09T08:56:26.811Z,15.38
2023-04-09T08:58:56.476Z,14.78
2023-04-09T09:01:25.182Z,15.46
2023-04-09T09:03:56.038Z,16.97
2023-04-09T09:06:24.860Z,16.37
2023-04-09T09:09:09.101Z,17.40
2023-04-09T09:11:40.397Z,16.67
2023-04-09T09:14:12.447Z,16.28
2023-04-09T09:16:42.832Z,17.80
2023-04-09T09:19:27.976Z,18.48
2023-04-09T09:22:02.526Z,19.86
2023-04-09T09:24:30.347Z,19.74
2023-04-09T09:26:59.752Z,20.16
2023-04-09T09:29:27.574Z,18.71
2023-04-09T09:31:57.261Z,18.68
2023-04-09T09:34:26.507Z,19.11
2023-04-09T09:36:53.951Z,19.52
2023-04-09T09:39:22.350Z,20.47
2023-04-09T09:42:08.777Z,20.34
2023-04-09T09:44:35.773Z,19.54
2023-04-09T09:47:04.314Z,20.84
2023-04-09T09:49:31.013Z,19.91
2023-04-09T09:51:59.920Z,20.00
2023-04-09T09:54:30.086Z,20.40
2023-04-09T09:57:00.893Z,20.41
2023-04-09T09:59:34.498Z,21.30
2023-04-09T10:02:06.302Z,20.68
2023-04-09T10:04:36.915Z,21.58
2023-04-09T10:07:07.571Z,19.62
2023-04-09T10:09:37.953Z,19.71
2023-04-09T10:12:06.905Z,20.55
2023-04-09T10:14:35.805Z,20.51
2023-04-09T10:17:03.936Z,22.05
2023-04-09T10:19:47.298Z,21.15
2023-04-09T10:22:19.656Z,19.79
2023-04-09T10:24:47.160Z,19.32
2023-04-09T10:27:16.709Z,18.43
2023-04-09T10:29:48.563Z,17.58
2023-04-09T10:32:26.438Z,17.86
2023-04-09T10:34:57.428Z,16.76
2023-04-09T10:37:25.518Z,16.84
2023-04-09T10:39:53.006Z,17.35
2023-04-09T10:42:22.446Z,16.75
2023-04-09T10:45:14.906Z,16.56
2023-04-09T10:47:43.143Z,15.51
2023-04-09T10:50:24.149Z,16.47
2023-04-09T10:53:00.892Z,16.46
2023-04-09T10:55:41.770Z,15.21
2023-04-09T10:58:12.784Z,15.62
2023-04-09T11:00:42.890Z,15.53
2023-04-09T11:03:32.675Z,15.74
2023-04-09T11:06:06.142Z,15.73
2023-04-09T11:08:34.147Z,16.31
2023-04-09T11:11:01.791Z,16.78
2023-04-09T11:13:30.652Z,16.85
2023-04-09T11:15:58.195Z,16.10
2023-04-09T11:18:26.915Z,17.07
2023-04-09T11:21:00.831Z,16.52
2023-04-09T11:23:28.363Z,17.39
2023-04-09T11:25:56.198Z,17.39
2023-04-09T11:28:24.178Z,16.78
2023-04-09T11:30:51.613Z,15.94
2023-04-09T11:33:19.991Z,16.57
2023-04-09T11:35:47.921Z,17.67
2023-04-09T11:38:14.898Z,17.15
2023-04-09T11:40:48.488Z,18.06
2023-04-09T11:43:16.939Z,19.01
2023-04-09T11:45:48.944Z,19.01
2023-04-09T11:48:18.085Z,18.63
2023-04-09T11:50:45.466Z,18.09
2023-04-09T11:53:22.179Z,17.58
2023-04-09T11:55:53.519Z,17.38
2023-04-09T11:58:27.908Z,17.23
2023-04-09T12:01:01.255Z,17.15
2023-04-09T12:03:33.014Z,16.19
2023-04-09T12:06:02.266Z,17.31
2023-04-09T12:08:28.873Z,17.56
2023-04-09T12:10:55.684Z,17.61
2023-04-09T12:13:32.162Z,17.71
2023-04-09T12:16:01.043Z,18.06
2023-04-09T12:18:28.125Z,17.16
2023-04-09T12:20:54.777Z,16.69
2023-04-09T12:23:21.342Z,16.79
2023-04-09T12:25:48.095Z,17.24
2023-04-09T12:28:16.643Z,17.23
2023-04-09T12:30:44.826Z,17.10
2023-04-09T12:33:11.682Z,16.68
2023-04-09T12:35:39.074Z,17.46
2023-04-09T12:38:06.441Z,17.47
2023-04-09T12:40:33.585Z,16.88
2023-04-09T12:43:00.505Z,17.20
2023-04-09T12:45:28.120Z,17.28
2023-04-09T12:47:55.559Z,17.49
2023-04-09T12:50:22.196Z,18.85
2023-04-09T12:52:49.141Z,18.75
2023-04-09T12:55:16.349Z,18.73
2023-04-09T12:57:45.808Z,19.02
2023-04-09T13:00:13.565Z,19.27
2023-04-09T13:02:40.610Z,19.51
2023-04-09T13:05:08.627Z,18.01
2023-04-09T13:07:35.409Z,17.48
2023-04-09T13:10:02.055Z,17.88
2023-04-09T13:12:28.900Z,18.31
2023-04-09T13:14:55.981Z,18.00
2023-04-09T13:17:23.110Z,17.80
2023-04-09T13:19:50.861Z,17.23
2023-04-09T13:22:18.550Z,17.76
2023-04-09T13:24:45.341Z,17.97
2023-04-09T13:27:13.262Z,18.48
2023-04-09T13:29:40.719Z,18.52
2023-04-09T13:32:08.460Z,18.63
2023-04-09T13:34:35.606Z,18.18
2023-04-09T13:37:03.704Z,18.72
2023-04-09T13:39:30.995Z,18.61
2023-04-09T13:41:57.859Z,18.20
2023-04-09T13:44:25.325Z,18.51
2023-04-09T13:46:52.438Z,18.29
2023-04-09T13:49:19.460Z,18.37
2023-04-09T13:51:46.192Z,17.99
2023-04-09T13:54:13.168Z,18.15
2023-04-09T13:56:40.338Z,17.62
2023-04-09T13:59:08.431Z,17.11
2023-04-09T14:01:35.942Z,17.04
2023-04-09T14:04:02.784Z,17.01
2023-04-09T14:06:29.576Z,16.55
2023-04-09T14:08:56.883Z,16.44
2023-04-09T14:11:23.715Z,16.43
2023-04-09T14:13:51.093Z,16.98
2023-04-09T14:16:20.744Z,17.37
2023-04-09T14:18:47.359Z,17.78
2023-04-09T14:21:14.277Z,18.46
2023-04-09T14:23:41.090Z,18.28
2023-04-09T14:26:08.412Z,18.29
2023-04-09T14:28:35.640Z,17.73
2023-04-09T14:31:02.293Z,17.41
2023-04-09T14:33:30.385Z,17.57
2023-04-09T14:35:59.004Z,18.38
2023-04-09T14:38:25.991Z,18.80
2023-04-09T14:40:53.157Z,18.79
2023-04-09T14:43:20.864Z,18.79
2023-04-09T14:45:47.494Z,18.96
2023-04-09T14:48:14.073Z,19.17
2023-04-09T14:50:41.146Z,18.91
2023-04-09T14:53:08.834Z,18.95
2023-04-09T14:55:35.996Z,17.32
2023-04-09T14:58:06.494Z,18.58
2023-04-09T15:00:33.296Z,17.02
2023-04-09T15:03:03.863Z,18.06
2023-04-09T15:05:30.892Z,18.18
2023-04-09T15:07:58.013Z,18.16
2023-04-09T15:10:24.870Z,17.87
2023-04-09T15:12:51.928Z,17.65
2023-04-09T15:15:18.866Z,17.44
2023-04-09T15:17:45.593Z,17.58
2023-04-09T15:20:13.841Z,16.93
2023-04-09T15:22:40.871Z,17.04
2023-04-09T15:25:07.750Z,17.11
2023-04-09T15:27:34.442Z,16.86
2023-04-09T15:30:02.025Z,16.92
2023-04-09T15:32:30.460Z,17.45
2023-04-09T15:34:57.191Z,17.24
2023-04-09T15:37:24.584Z,16.93
2023-04-09T15:39:51.612Z,17.08
2023-04-09T15:42:22.959Z,17.03
2023-04-09T15:44:50.427Z,17.05
2023-04-09T15:47:17.639Z,17.47
2023-04-09T15:49:44.300Z,16.96
2023-04-09T15:52:11.072Z,16.97
2023-04-09T15:54:37.919Z,17.28
2023-04-09T15:57:04.541Z,17.81
2023-04-09T15:59:32.037Z,17.64
2023-04-09T16:01:58.871Z,17.57
2023-04-09T16:04:26.841Z,17.33
2023-04-09T16:06:55.714Z,17.33
2023-04-09T16:09:23.105Z,17.09
2023-04-09T16:11:52.139Z,18.13
2023-04-09T16:14:19.210Z,18.13
2023-04-09T16:16:49.673Z,18.20
2023-04-09T16:19:20.347Z,17.71
2023-04-09T16:21:47.407Z,17.41
2023-04-09T16:24:15.982Z,17.55
2023-04-09T16:26:44.848Z,17.77
2023-04-09T16:29:13.048Z,17.88
2023-04-09T16:31:42.099Z,18.20
2023-04-09T16:34:13.266Z,17.29
2023-04-09T16:36:41.551Z,17.09
2023-04-09T16:39:11.963Z,17.03
2023-04-09T16:41:39.458Z,17.00
2023-04-09T16:44:06.664Z,16.88
2023-04-09T16:46:33.382Z,16.57
2023-04-09T16:48:59.929Z,16.53
2023-04-09T16:51:27.091Z,16.22
2023-04-09T16:53:53.772Z,16.47
2023-04-09T16:56:21.113Z,16.99
2023-04-09T16:58:51.006Z,16.77
2023-04-09T17:01:17.946Z,16.42
2023-04-09T17:03:45.147Z,16.76
2023-04-09T17:06:12.080Z,16.89
2023-04-09T17:08:38.635Z,17.00
2023-04-09T17:11:06.454Z,16.56
2023-04-09T17:13:36.815Z,16.42
2023-04-09T17:16:04.239Z,16.56
2023-04-09T17:18:30.963Z,16.63
2023-04-09T17:20:57.682Z,16.43
2023-04-09T17:23:24.434Z,16.53
2023-04-09T17:25:51.140Z,16.83
2023-04-09T17:28:18.947Z,16.92
2023-04-09T17:30:46.275Z,16.46
2023-04-09T17:33:12.952Z,16.49
2023-04-09T17:35:39.935Z,16.54
2023-04-09T17:38:06.590Z,16.87
2023-04-09T17:40:33.176Z,16.80
2023-04-09T17:43:00.264Z,16.80
2023-04-09T17:45:26.895Z,16.46
2023-04-09T17:47:54.028Z,16.04
2023-04-09T17:50:20.731Z,16.40
2023-04-09T17:52:48.022Z,16.07
2023-04-09T17:55:14.995Z,16.27
2023-04-09T17:57:42.736Z,15.97
2023-04-09T18:00:11.183Z,15.79
2023-04-09T18:02:39.169Z,15.98
2023-04-09T18:05:07.246Z,16.01
2023-04-09T18:07:35.405Z,15.82
2023-04-09T18:10:05.519Z,15.54
2023-04-09T18:12:32.822Z,15.80
2023-04-09T18:15:01.834Z,15.69
2023-04-09T18:17:29.327Z,15.38
2023-04-09T18:19:58.354Z,15.39
2023-04-09T18:22:26.363Z,15.27
2023-04-09T18:24:53.077Z,15.10
2023-04-09T18:27:20.506Z,15.01
2023-04-09T18:29:49.492Z,14.99
2023-04-09T18:32:19.098Z,15.22
2023-04-09T18:34:47.277Z,15.22
2023-04-09T18:37:15.914Z,15.15
2023-04-09T18:39:42.570Z,15.14
2023-04-09T18:42:09.603Z,14.98
2023-04-09T18:44:40.286Z,15.06
2023-04-09T18:47:09.707Z,15.05
2023-04-09T18:49:36.690Z,15.06
2023-04-09T18:52:06.114Z,15.00
2023-04-09T18:54:34.922Z,14.73
2023-04-09T18:57:04.142Z,14.46
2023-04-09T18:59:34.932Z,14.21
2023-04-09T19:02:05.497Z,13.94
2023-04-09T19:04:39.703Z,13.81
2023-04-09T19:07:06.854Z,13.69
2023-04-09T19:09:33.666Z,13.60
2023-04-09T19:12:01.865Z,13.54
2023-04-09T19:14:28.797Z,13.48
2023-04-09T19:16:57.098Z,13.36
2023-04-09T19:19:23.966Z,13.42
2023-04-09T19:21:50.843Z,13.29
2023-04-09T19:24:17.560Z,13.43
2023-04-09T19:26:44.374Z,13.55
2023-04-09T19:29:11.186Z,13.41
2023-04-09T19:31:38.050Z,13.32
2023-04-09T19:34:06.101Z,13.17
2023-04-09T19:36:34.100Z,13.23
2023-04-09T19:39:01.915Z,13.21
2023-04-09T19:41:28.581Z,12.85
2023-04-09T19:43:55.692Z,12.93
2023-04-09T19:46:22.476Z,12.85
2023-04-09T19:48:50.430Z,12.75
2023-04-09T19:51:21.848Z,12.64
2023-04-09T19:53:49.399Z,12.56
2023-04-09T19:56:16.106Z,12.53
2023-04-09T19:58:43.922Z,12.57
2023-04-09T20:01:11.460Z,12.38
2023-04-09T20:03:38.781Z,12.39
2023-04-09T20:06:10.305Z,12.34
2023-04-09T20:08:38.111Z,12.14
2023-04-09T20:11:05.473Z,12.10
2023-04-09T20:13:32.244Z,12.15
2023-04-09T20:15:59.717Z,12.07
2023-04-09T20:18:26.461Z,12.05
2023-04-09T20:20:53.226Z,11.86
2023-04-09T20:23:19.898Z,11.81
2023-04-09T20:25:47.013Z,11.80
2023-04-09T20:28:13.659Z,11.70
2023-04-09T20:30:40.543Z,11.67
2023-04-09T20:33:07.344Z,11.60
2023-04-09T20:35:36.604Z,11.49
2023-04-09T20:38:03.331Z,11.55
2023-04-09T20:40:32.279Z,11.58
2023-04-09T20:42:59.503Z,11.47
2023-04-09T20:45:26.225Z,11.45
2023-04-09T20:47:55.303Z,11.41
2023-04-09T20:50:22.240Z,11.36
2023-04-09T20:52:49.677Z,11.36
2023-04-09T20:55:16.849Z,11.29
2023-04-09T20:57:45.258Z,11.27
2023-04-09T21:00:12.696Z,11.13
2023-04-09T21:02:40.731Z,11.09
2023-04-09T21:05:21.306Z,11.12
2023-04-09T21:07:50.821Z,11.04
2023-04-09T21:10:17.576Z,10.99
2023-04-09T21:12:44.543Z,10.83
2023-04-09T21:15:11.696Z,10.69
2023-04-09T21:17:38.741Z,10.73
2023-04-09T21:20:06.679Z,10.82
2023-04-09T21:22:34.744Z,10.82
2023-04-09T21:25:03.079Z,10.79
2023-04-09T21:27:30.243Z,10.74
2023-04-09T21:29:57.403Z,10.73
2023-04-09T21:32:25.442Z,10.62
2023-04-09T21:34:52.255Z,10.57
2023-04-09T21:37:19.151Z,10.51
2023-04-09T21:39:46.445Z,10.43
2023-04-09T21:42:13.614Z,10.36
2023-04-09T21:44:40.409Z,10.36
2023-04-09T21:47:08.960Z,10.32
2023-04-09T21:49:40.324Z,10.27
2023-04-09T21:52:14.479Z,10.02
2023-04-09T21:54:42.481Z,10.07
2023-04-09T21:57:12.019Z,10.09
2023-04-09T21:59:41.321Z,10.00
2023-04-09T22:02:09.599Z,10.01
2023-04-09T22:04:37.057Z,10.00
2023-04-09T22:07:04.074Z,9.97
2023-04-09T22:09:31.410Z,9.89
2023-04-09T22:12:01.027Z,9.92
2023-04-09T22:14:29.783Z,9.96
2023-04-09T22:16:58.440Z,9.90
2023-04-09T22:19:26.200Z,9.86
2023-04-09T22:21:53.698Z,9.80
2023-04-09T22:24:26.651Z,9.82
2023-04-09T22:26:53.830Z,9.82
2023-04-09T22:29:20.468Z,9.71
2023-04-09T22:31:47.054Z,9.70
2023-04-09T22:34:20.785Z,9.66
2023-04-09T22:36:48.807Z,9.56
2023-04-09T22:39:16.762Z,9.37
2023-04-09T22:41:43.683Z,9.48
2023-04-09T22:44:10.532Z,9.48
2023-04-09T22:46:37.172Z,9.41
2023-04-09T22:49:05.340Z,9.39
2023-04-09T22:51:34.879Z,9.39
2023-04-09T22:54:02.256Z,9.38
2023-04-09T22:56:31.005Z,9.34
2023-04-09T22:58:57.638Z,9.22
2023-04-09T23:01:24.644Z,9.26
2023-04-09T23:03:51.499Z,9.14
2023-04-09T23:06:19.377Z,9.18
2023-04-09T23:08:46.525Z,9.18
2023-04-09T23:11:13.700Z,9.15
2023-04-09T23:13:40.381Z,9.13
2023-04-09T23:16:09.133Z,9.09
2023-04-09T23:18:36.250Z,9.05
2023-04-09T23:21:05.157Z,8.84
2023-04-09T23:23:31.780Z,9.03
2023-04-09T23:25:58.337Z,8.95
2023-04-09T23:28:25.912Z,8.93
2023-04-09T23:30:52.495Z,8.93
2023-04-09T23:33:19.823Z,8.85
2023-04-09T23:35:47.045Z,8.88
2023-04-09T23:38:15.170Z,8.91
2023-04-09T23:40:42.574Z,8.84
2023-04-09T23:43:09.225Z,8.78
2023-04-09T23:45:35.814Z,8.68
2023-04-09T23:48:07.372Z,8.68
2023-04-09T23:50:34.127Z,8.68
2023-04-09T23:53:03.823Z,8.63
2023-04-09T23:55:30.851Z,8.65
2023-04-09T23:57:57.478Z,8.58
